createdAt,value
2018-03-06T00:00:35.960Z,11.85
2018-03-06T00:08:38.154Z,12.60
2018-03-06T00:11:05.692Z,13.55
2018-03-06T00:13:33.980Z,11.82
2018-03-06T00:16:02.290Z,14.32
2018-03-06T00:18:29.831Z,14.70
2018-03-06T00:20:57.351Z,13.35
2018-03-06T00:23:24.900Z,14.13
2018-03-06T00:25:52.536Z,14.07
2018-03-06T00:28:20.068Z,14.57
2018-03-06T00:30:47.612Z,14.70
2018-03-06T00:33:15.920Z,13.15
2018-03-06T00:35:43.429Z,13.70
2018-03-06T00:38:11.008Z,14.13
2018-03-06T00:40:39.315Z,15.23
2018-03-06T00:43:06.900Z,13.62
2018-03-06T00:45:34.546Z,15.30
2018-03-06T00:48:02.230Z,14.10
2018-03-06T00:50:29.764Z,15.30
2018-03-06T00:52:57.275Z,15.85
2018-03-06T00:55:24.816Z,15.65
2018-03-06T00:57:53.853Z,18.58
2018-03-06T01:00:21.421Z,15.32
2018-03-06T01:02:48.936Z,16.00
2018-03-06T01:05:16.484Z,17.23
2018-03-06T01:07:44.012Z,16.50
2018-03-06T01:10:12.375Z,15.50
2018-03-06T01:12:39.903Z,15.18
2018-03-06T01:15:07.527Z,15.95
2018-03-06T01:17:35.064Z,16.05
2018-03-06T01:20:02.613Z,18.52
2018-03-06T01:22:30.138Z,16.62
2018-03-06T01:24:57.731Z,16.75
2018-03-06T01:27:25.259Z,16.15
2018-03-06T01:29:53.585Z,17.37
2018-03-06T01:32:21.140Z,16.75
2018-03-06T01:34:48.695Z,16.67
2018-03-06T01:37:16.206Z,17.45
2018-03-06T01:39:43.821Z,17.80
2018-03-06T01:42:11.338Z,18.55
2018-03-06T01:44:38.964Z,18.65
2018-03-06T01:47:06.490Z,17.98
2018-03-06T01:49:50.630Z,18.00
2018-03-06T01:52:18.238Z,19.17
2018-03-06T01:54:45.887Z,19.00
2018-03-06T01:57:13.537Z,17.67
2018-03-06T01:59:41.444Z,19.52
2018-03-06T02:02:09.046Z,18.35
2018-03-06T02:04:37.459Z,17.02
2018-03-06T02:07:04.984Z,18.00
2018-03-06T02:09:32.527Z,20.37
2018-03-06T02:12:00.804Z,18.67
2018-03-06T02:14:29.197Z,20.17
2018-03-06T02:16:56.732Z,18.50
2018-03-06T02:19:25.139Z,19.60
2018-03-06T02:21:52.850Z,20.35
2018-03-06T02:24:20.393Z,18.30
2018-03-06T02:26:48.080Z,21.48
2018-03-06T02:29:16.432Z,20.80
2018-03-06T02:31:43.952Z,19.02
2018-03-06T02:34:11.496Z,19.50
2018-03-06T02:36:39.807Z,20.70
2018-03-06T02:39:07.371Z,20.65
2018-03-06T02:41:34.914Z,19.00
2018-03-06T02:44:02.472Z,19.48
2018-03-06T02:46:30.026Z,20.40
2018-03-06T02:48:57.593Z,19.80
2018-03-06T02:51:25.127Z,19.33
2018-03-06T02:53:53.432Z,20.10
2018-03-06T02:56:20.968Z,21.87
2018-03-06T02:58:49.284Z,22.10
2018-03-06T03:01:16.887Z,19.95
2018-03-06T03:03:44.423Z,21.60
2018-03-06T03:06:11.977Z,21.25
2018-03-06T03:08:39.519Z,20.17
2018-03-06T03:11:07.035Z,20.90
2018-03-06T03:13:35.444Z,20.75
2018-03-06T03:16:03.102Z,21.40
2018-03-06T03:18:30.639Z,21.67
2018-03-06T03:20:59.886Z,21.35
2018-03-06T03:23:27.536Z,20.52
2018-03-06T03:25:55.144Z,21.73
2018-03-06T03:28:23.488Z,21.25
2018-03-06T03:30:51.084Z,21.15
2018-03-06T03:33:19.439Z,21.50
2018-03-06T03:35:47.019Z,21.70
2018-03-06T03:38:14.736Z,20.55
2018-03-06T03:40:42.256Z,22.87
2018-03-06T03:43:09.824Z,22.10
2018-03-06T03:45:37.351Z,22.95
2018-03-06T03:48:04.903Z,21.73
2018-03-06T03:50:32.434Z,24.90
2018-03-06T03:53:00.155Z,22.05
2018-03-06T03:55:28.436Z,21.92
2018-03-06T03:57:56.802Z,20.62
2018-03-06T04:00:24.412Z,20.98
2018-03-06T04:02:51.965Z,22.08
2018-03-06T04:05:19.502Z,21.98
2018-03-06T04:07:47.051Z,21.05
2018-03-06T04:10:15.375Z,22.52
2018-03-06T04:12:42.897Z,22.77
2018-03-06T04:15:10.448Z,23.58
2018-03-06T04:17:38.735Z,22.50
2018-03-06T04:20:06.322Z,22.62
2018-03-06T04:22:33.842Z,22.87
2018-03-06T04:25:02.247Z,22.52
2018-03-06T04:27:29.767Z,22.13
2018-03-06T04:29:58.088Z,22.75
2018-03-06T04:32:25.611Z,23.02
2018-03-06T04:34:53.932Z,21.65
2018-03-06T04:37:21.468Z,23.67
2018-03-06T04:39:49.138Z,21.85
2018-03-06T04:42:16.660Z,22.62
2018-03-06T04:44:45.121Z,22.60
2018-03-06T04:47:14.155Z,22.55
2018-03-06T04:49:41.710Z,22.85
2018-03-06T04:52:09.269Z,22.77
2018-03-06T04:54:36.863Z,23.85
2018-03-06T04:57:04.371Z,22.73
2018-03-06T04:59:32.685Z,22.92
2018-03-06T05:02:00.307Z,23.52
2018-03-06T05:04:28.718Z,22.10
2018-03-06T05:06:56.243Z,24.40
2018-03-06T05:09:23.810Z,23.00
2018-03-06T05:11:52.099Z,23.33
2018-03-06T05:14:20.437Z,22.87
2018-03-06T05:16:47.950Z,24.50
2018-03-06T05:19:15.504Z,24.23
2018-03-06T05:21:43.048Z,26.10
2018-03-06T05:24:11.387Z,25.77
2018-03-06T05:26:38.907Z,26.75
2018-03-06T05:29:06.456Z,24.48
2018-03-06T05:31:34.030Z,25.92
2018-03-06T05:34:01.612Z,25.05
2018-03-06T05:36:29.131Z,26.52
2018-03-06T05:38:56.766Z,25.80
2018-03-06T05:41:24.232Z,24.67
2018-03-06T05:43:52.552Z,25.17
2018-03-06T05:46:20.059Z,26.27
2018-03-06T05:48:48.383Z,25.58
2018-03-06T05:51:15.907Z,25.58
2018-03-06T05:53:44.325Z,27.02
2018-03-06T05:56:11.866Z,25.90
2018-03-06T05:58:39.420Z,26.73
2018-03-06T06:01:06.951Z,26.10
2018-03-06T06:03:34.515Z,27.00
2018-03-06T06:06:02.055Z,27.77
2018-03-06T06:08:29.791Z,28.40
2018-03-06T06:10:57.335Z,27.25
2018-03-06T06:13:24.877Z,28.02
2018-03-06T06:15:52.404Z,28.35
2018-03-06T06:18:19.991Z,27.42
2018-03-06T06:20:48.283Z,27.60
2018-03-06T06:23:15.888Z,28.20
2018-03-06T06:25:43.538Z,27.95
2018-03-06T06:28:11.117Z,28.20
2018-03-06T06:30:38.687Z,27.50
2018-03-06T06:33:06.304Z,30.12
2018-03-06T06:35:33.832Z,29.12
2018-03-06T06:38:02.112Z,29.33
2018-03-06T06:40:30.440Z,27.60
2018-03-06T06:42:58.030Z,28.27
2018-03-06T06:45:25.561Z,30.10
2018-03-06T06:47:53.114Z,28.87
2018-03-06T06:50:20.673Z,30.02
2018-03-06T06:52:48.192Z,27.45
2018-03-06T06:55:15.773Z,29.95
2018-03-06T06:57:43.298Z,32.15
2018-03-06T07:00:11.647Z,28.75
2018-03-06T07:02:39.970Z,30.70
2018-03-06T07:05:07.508Z,28.10
2018-03-06T07:07:35.788Z,30.33
2018-03-06T07:10:04.075Z,29.70
2018-03-06T07:12:31.601Z,29.67
2018-03-06T07:14:59.124Z,32.78
2018-03-06T07:17:26.668Z,28.62
2018-03-06T07:19:54.282Z,30.50
2018-03-06T07:22:21.809Z,30.30
2018-03-06T07:24:49.435Z,31.08
2018-03-06T07:27:16.978Z,30.48
2018-03-06T07:29:45.280Z,31.65
2018-03-06T07:32:12.832Z,32.75
2018-03-06T07:34:40.371Z,33.85
2018-03-06T07:37:08.635Z,31.40
2018-03-06T07:39:36.252Z,30.25
2018-03-06T07:42:03.796Z,30.75
2018-03-06T07:44:31.344Z,29.52
2018-03-06T07:46:58.892Z,33.08
2018-03-06T07:49:27.196Z,30.33
2018-03-06T07:51:54.731Z,31.80
2018-03-06T07:54:23.053Z,29.95
2018-03-06T07:56:50.572Z,29.87
2018-03-06T07:59:18.155Z,32.08
2018-03-06T08:01:45.706Z,32.72
2018-03-06T08:04:14.251Z,31.87
2018-03-06T08:06:41.803Z,34.58
2018-03-06T08:09:23.131Z,33.13
2018-03-06T08:11:50.678Z,31.90
2018-03-06T08:14:18.216Z,32.08
2018-03-06T08:16:46.496Z,31.73
2018-03-06T08:19:14.844Z,31.50
2018-03-06T08:21:42.460Z,32.75
2018-03-06T08:24:09.990Z,33.97
2018-03-06T08:26:37.587Z,33.25
2018-03-06T08:29:05.158Z,33.13
2018-03-06T08:31:32.686Z,32.75
2018-03-06T08:34:01.144Z,34.83
2018-03-06T08:36:29.460Z,32.20
2018-03-06T08:38:57.085Z,34.53
2018-03-06T08:41:25.412Z,34.92
2018-03-06T08:43:52.987Z,33.35
2018-03-06T08:46:20.524Z,34.75
2018-03-06T08:48:48.071Z,34.88
2018-03-06T08:51:16.101Z,38.90
2018-03-06T08:53:43.728Z,35.30
2018-03-06T08:56:11.280Z,33.20
2018-03-06T08:58:38.832Z,35.78
2018-03-06T09:01:07.322Z,33.97
2018-03-06T09:03:34.910Z,33.95
2018-03-06T09:06:02.377Z,33.88
2018-03-06T09:08:29.976Z,35.88
2018-03-06T09:10:57.644Z,32.90
2018-03-06T09:13:25.203Z,33.35
2018-03-06T09:15:52.703Z,35.50
2018-03-06T09:18:20.239Z,34.42
2018-03-06T09:20:47.798Z,35.15
2018-03-06T09:23:15.448Z,33.38
2018-03-06T09:25:43.299Z,34.92
2018-03-06T09:28:10.873Z,32.22
2018-03-06T09:30:38.423Z,33.83
2018-03-06T09:33:05.948Z,34.40
2018-03-06T09:35:35.095Z,32.92
2018-03-06T09:38:02.612Z,32.85
2018-03-06T09:40:32.145Z,33.13
2018-03-06T09:42:59.728Z,34.72
2018-03-06T09:45:27.320Z,33.90
2018-03-06T09:47:54.831Z,33.65
2018-03-06T09:50:22.388Z,33.55
2018-03-06T09:52:49.936Z,32.33
2018-03-06T09:55:17.519Z,33.58
2018-03-06T09:57:45.050Z,34.92
2018-03-06T10:00:12.662Z,32.90
2018-03-06T10:02:40.236Z,34.10
2018-03-06T10:05:07.803Z,34.05
2018-03-06T10:07:36.151Z,32.65
2018-03-06T10:10:03.729Z,31.35
2018-03-06T10:12:31.270Z,33.00
2018-03-06T10:14:58.836Z,32.75
2018-03-06T10:17:26.360Z,31.67
2018-03-06T10:19:53.912Z,32.53
2018-03-06T10:22:21.472Z,30.70
2018-03-06T10:24:49.019Z,30.27
2018-03-06T10:27:16.584Z,30.60
2018-03-06T10:29:44.138Z,31.77
2018-03-06T10:32:11.707Z,31.70
2018-03-06T10:34:39.274Z,29.90
2018-03-06T10:37:06.811Z,31.40
2018-03-06T10:39:34.436Z,30.25
2018-03-06T10:42:02.008Z,29.48
2018-03-06T10:44:30.477Z,31.55
2018-03-06T10:46:58.043Z,30.42
2018-03-06T10:49:25.655Z,30.47
2018-03-06T10:51:54.813Z,31.00
2018-03-06T10:54:23.216Z,32.57
2018-03-06T10:56:50.783Z,32.10
2018-03-06T10:59:18.351Z,29.00
2018-03-06T11:01:45.908Z,28.90
2018-03-06T11:04:13.684Z,29.20
2018-03-06T11:06:41.298Z,30.37
2018-03-06T11:09:09.589Z,29.73
2018-03-06T11:11:37.642Z,29.90
2018-03-06T11:14:05.972Z,27.50
2018-03-06T11:16:34.743Z,28.80
2018-03-06T11:19:02.323Z,29.57
2018-03-06T11:21:30.032Z,29.60
2018-03-06T11:23:57.663Z,30.10
2018-03-06T11:26:25.216Z,30.50
2018-03-06T11:28:52.758Z,28.43
2018-03-06T11:31:20.622Z,30.23
2018-03-06T11:33:48.176Z,27.83
2018-03-06T11:36:15.791Z,27.87
2018-03-06T11:38:44.132Z,27.13
2018-03-06T11:41:11.673Z,25.80
2018-03-06T11:43:39.719Z,26.70
2018-03-06T11:46:07.817Z,23.17
2018-03-06T11:48:35.381Z,23.60
2018-03-06T11:51:03.034Z,24.63
2018-03-06T11:53:30.698Z,26.20
2018-03-06T11:55:58.278Z,27.20
2018-03-06T11:58:26.117Z,26.77
2018-03-06T12:00:53.791Z,27.63
2018-03-06T12:03:21.323Z,25.03
2018-03-06T12:05:48.851Z,27.77
2018-03-06T12:08:17.282Z,24.50
2018-03-06T12:10:45.493Z,23.40
2018-03-06T12:13:12.997Z,21.77
2018-03-06T12:15:41.343Z,20.30
2018-03-06T12:18:08.880Z,21.70
2018-03-06T12:20:36.447Z,19.73
2018-03-06T12:23:04.011Z,21.53
2018-03-06T12:25:31.634Z,21.17
2018-03-06T12:27:59.159Z,21.33
2018-03-06T12:30:27.501Z,23.60
2018-03-06T12:32:55.948Z,23.23
2018-03-06T12:35:23.512Z,22.20
2018-03-06T12:37:51.073Z,21.30
2018-03-06T12:40:18.668Z,24.00
2018-03-06T12:42:46.233Z,23.33
2018-03-06T12:45:13.788Z,22.90
2018-03-06T12:47:41.343Z,21.73
2018-03-06T12:50:08.962Z,21.63
2018-03-06T12:52:36.533Z,22.47
2018-03-06T12:55:04.127Z,21.70
2018-03-06T12:57:31.721Z,20.03
2018-03-06T13:00:00.020Z,21.73
2018-03-06T13:02:27.696Z,22.97
2018-03-06T13:04:55.241Z,24.50
2018-03-06T13:07:22.825Z,22.10
2018-03-06T13:09:50.368Z,22.53
2018-03-06T13:12:17.913Z,22.83
2018-03-06T13:14:45.500Z,22.17
2018-03-06T13:17:13.055Z,22.13
2018-03-06T13:19:40.598Z,22.63
2018-03-06T13:22:08.171Z,22.77
2018-03-06T13:24:36.537Z,22.70
2018-03-06T13:27:04.141Z,23.03
2018-03-06T13:29:31.815Z,24.37
2018-03-06T13:31:59.370Z,22.70
2018-03-06T13:34:27.086Z,22.60
2018-03-06T13:36:54.668Z,21.13
2018-03-06T13:39:22.205Z,24.53
2018-03-06T13:41:49.867Z,23.03
2018-03-06T13:44:17.432Z,23.30
2018-03-06T13:46:45.052Z,23.30
2018-03-06T13:49:13.499Z,20.37
2018-03-06T13:51:41.182Z,20.23
2018-03-06T13:54:08.791Z,22.40
2018-03-06T13:56:36.464Z,21.30
2018-03-06T13:59:04.011Z,22.57
2018-03-06T14:01:31.616Z,22.00
2018-03-06T14:03:59.317Z,21.53
2018-03-06T14:06:26.896Z,22.10
2018-03-06T14:08:54.414Z,21.60
2018-03-06T14:11:22.799Z,23.87
2018-03-06T14:13:51.155Z,23.50
2018-03-06T14:16:19.581Z,22.10
2018-03-06T14:18:47.110Z,23.17
2018-03-06T14:21:14.696Z,20.73
2018-03-06T14:23:42.272Z,22.10
2018-03-06T14:26:09.867Z,22.30
2018-03-06T14:28:37.393Z,22.20
2018-03-06T14:31:04.963Z,22.50
2018-03-06T14:33:32.592Z,22.93
2018-03-06T14:36:00.161Z,21.90
2018-03-06T14:38:27.701Z,21.30
2018-03-06T14:40:56.105Z,22.20
2018-03-06T14:43:33.560Z,24.97
2018-03-06T14:46:01.868Z,25.67
2018-03-06T14:48:29.434Z,23.80
2018-03-06T14:50:57.079Z,24.70
2018-03-06T14:53:24.765Z,26.10
2018-03-06T14:55:52.346Z,23.30
2018-03-06T14:58:19.876Z,23.43
2018-03-06T15:00:47.437Z,24.40
2018-03-06T15:03:15.002Z,23.70
2018-03-06T15:05:42.762Z,25.20
2018-03-06T15:08:10.319Z,23.90
2018-03-06T15:10:37.868Z,24.60
2018-03-06T15:13:05.438Z,23.87
2018-03-06T15:15:32.985Z,24.70
2018-03-06T15:18:00.579Z,25.23
2018-03-06T15:20:28.124Z,26.37
2018-03-06T15:22:56.097Z,26.40
2018-03-06T15:25:23.660Z,27.60
2018-03-06T15:27:51.203Z,27.53
2018-03-06T15:30:18.866Z,24.70
2018-03-06T15:32:46.529Z,26.70
2018-03-06T15:35:14.112Z,25.80
2018-03-06T15:37:41.664Z,22.13
2018-03-06T15:40:09.248Z,23.10
2018-03-06T15:42:36.799Z,23.08
2018-03-06T15:45:04.367Z,25.50
2018-03-06T15:47:32.026Z,21.70
2018-03-06T15:49:59.642Z,20.43
2018-03-06T15:52:27.284Z,21.17
2018-03-06T15:54:55.750Z,21.43
2018-03-06T15:57:24.076Z,21.20
2018-03-06T15:59:51.656Z,21.10
2018-03-06T16:02:20.163Z,20.12
2018-03-06T16:04:49.579Z,17.57
2018-03-06T16:07:17.897Z,17.10
2018-03-06T16:09:45.484Z,17.20
2018-03-06T16:12:13.314Z,18.20
2018-03-06T16:14:41.126Z,16.40
2018-03-06T16:17:08.687Z,16.40
2018-03-06T16:19:42.804Z,16.43
2018-03-06T16:22:11.453Z,18.30
2018-03-06T16:24:39.011Z,17.95
2018-03-06T16:27:06.631Z,16.40
2018-03-06T16:29:34.983Z,17.02
2018-03-06T16:32:02.597Z,16.00
2018-03-06T16:34:30.227Z,15.87
2018-03-06T16:36:58.548Z,16.37
2018-03-06T16:39:26.947Z,16.70
2018-03-06T16:41:54.559Z,15.73
2018-03-06T16:44:22.410Z,14.40
2018-03-06T16:46:50.100Z,15.82
2018-03-06T16:49:17.680Z,16.03
2018-03-06T16:51:45.337Z,17.00
2018-03-06T16:54:13.132Z,15.73
2018-03-06T16:56:40.703Z,16.60
2018-03-06T16:59:09.098Z,15.20
2018-03-06T17:01:36.685Z,16.48
2018-03-06T17:04:04.300Z,16.65
2018-03-06T17:06:31.881Z,16.15
2018-03-06T17:09:02.049Z,15.43
2018-03-06T17:11:39.582Z,16.25
2018-03-06T17:14:07.216Z,14.45
2018-03-06T17:16:34.800Z,15.20
2018-03-06T17:19:02.403Z,15.82
2018-03-06T17:21:30.024Z,14.98
2018-03-06T17:23:57.736Z,16.50
2018-03-06T17:26:26.198Z,17.58
2018-03-06T17:28:53.958Z,15.88
2018-03-06T17:31:21.504Z,16.20
2018-03-06T17:33:50.697Z,16.58
2018-03-06T17:36:19.045Z,16.48
2018-03-06T17:38:46.680Z,16.30
2018-03-06T17:41:14.405Z,15.52
2018-03-06T17:43:42.836Z,15.60
2018-03-06T17:46:10.648Z,16.25
2018-03-06T17:48:38.254Z,20.15
2018-03-06T17:51:06.124Z,19.05
2018-03-06T17:53:33.776Z,16.08
2018-03-06T17:56:01.492Z,16.60
2018-03-06T17:58:29.104Z,15.57
2018-03-06T18:00:56.725Z,16.02
2018-03-06T18:03:25.109Z,17.20
2018-03-06T18:05:53.457Z,17.12
2018-03-06T18:08:22.605Z,16.80
2018-03-06T18:10:50.274Z,16.02
2018-03-06T18:13:17.848Z,15.02
2018-03-06T18:15:45.433Z,17.85
2018-03-06T18:18:13.062Z,42.65
2018-03-06T18:20:40.843Z,38.17
2018-03-06T18:23:08.451Z,26.52
2018-03-06T18:25:36.068Z,18.37
2018-03-06T18:28:03.701Z,15.57
2018-03-06T18:30:31.402Z,43.17
2018-03-06T18:32:58.980Z,17.80
2018-03-06T18:35:27.356Z,16.67
2018-03-06T18:37:54.921Z,14.27
2018-03-06T18:42:58.685Z,36.97
2018-03-06T18:45:26.378Z,39.17
2018-03-06T18:47:54.044Z,22.23
2018-03-06T18:50:33.612Z,15.85
2018-03-06T18:53:01.296Z,13.45
2018-03-06T18:55:28.889Z,14.80
2018-03-06T18:57:56.494Z,12.80
2018-03-06T19:03:46.232Z,17.42
2018-03-06T19:06:23.784Z,16.00
2018-03-06T19:08:52.272Z,25.70
2018-03-06T19:11:20.666Z,26.98
2018-03-06T19:13:48.515Z,17.25
2018-03-06T19:16:16.869Z,12.48
2018-03-06T19:18:44.602Z,11.80
2018-03-06T19:21:12.209Z,16.10
2018-03-06T19:23:39.822Z,17.10
2018-03-06T19:26:07.391Z,19.10
2018-03-06T19:28:35.053Z,18.58
2018-03-06T19:31:02.679Z,16.62
2018-03-06T19:33:30.270Z,17.90
2018-03-06T19:35:57.856Z,24.12
2018-03-06T19:38:25.498Z,15.10
2018-03-06T19:40:53.088Z,26.50
2018-03-06T19:43:20.685Z,15.85
2018-03-06T19:45:48.239Z,26.15
2018-03-06T19:48:16.770Z,15.98
2018-03-06T19:50:44.307Z,15.68
2018-03-06T19:53:11.870Z,14.25
2018-03-06T19:55:39.414Z,16.42
2018-03-06T19:58:06.971Z,26.10
2018-03-06T20:00:34.652Z,22.15
2018-03-06T20:03:03.176Z,20.12
2018-03-06T20:05:31.528Z,20.10
2018-03-06T20:07:59.104Z,15.80
2018-03-06T20:10:26.634Z,13.50
2018-03-06T20:12:54.207Z,14.02
2018-03-06T20:15:21.753Z,13.23
2018-03-06T20:17:49.316Z,13.62
2018-03-06T20:20:16.949Z,14.02
2018-03-06T20:22:44.512Z,13.62
2018-03-06T20:25:17.792Z,13.75
2018-03-06T20:27:45.304Z,14.55
2018-03-06T20:30:18.616Z,15.00
2018-03-06T20:32:51.785Z,16.33
2018-03-06T20:35:19.923Z,15.25
2018-03-06T20:37:48.583Z,16.12
2018-03-06T20:40:31.728Z,16.55
2018-03-06T20:42:59.312Z,22.08
2018-03-06T20:45:26.876Z,21.98
2018-03-06T20:47:54.538Z,24.52
2018-03-06T20:50:22.133Z,24.55
2018-03-06T20:52:55.421Z,23.67
2018-03-06T20:55:23.148Z,22.62
2018-03-06T20:57:51.509Z,26.62
2018-03-06T21:00:19.083Z,24.52
2018-03-06T21:02:46.633Z,27.42
2018-03-06T21:05:14.159Z,30.33
2018-03-06T21:07:42.627Z,23.25
2018-03-06T21:10:10.245Z,17.90
2018-03-06T21:12:37.837Z,17.90
2018-03-06T21:15:05.360Z,19.55
2018-03-06T21:17:32.954Z,19.85
2018-03-06T21:20:00.482Z,21.23
2018-03-06T21:22:28.237Z,17.35
2018-03-06T21:24:55.820Z,18.30
2018-03-06T21:27:23.563Z,16.45
2018-03-06T21:29:51.180Z,17.55
2018-03-06T21:32:18.802Z,21.73
2018-03-06T21:34:46.409Z,23.25
2018-03-06T21:37:14.917Z,22.45
2018-03-06T21:39:42.481Z,19.17
2018-03-06T21:42:10.141Z,18.40
2018-03-06T21:44:37.761Z,18.50
2018-03-06T21:47:05.336Z,19.48
2018-03-06T21:49:33.659Z,18.83
2018-03-06T21:52:01.305Z,15.95
2018-03-06T21:54:28.818Z,17.77
2018-03-06T21:56:57.149Z,18.55
2018-03-06T21:59:24.753Z,18.98
2018-03-06T22:01:52.407Z,18.05
2018-03-06T22:04:20.037Z,16.05
2018-03-06T22:06:47.675Z,17.50
2018-03-06T22:09:15.242Z,18.10
2018-03-06T22:11:42.799Z,16.55
2018-03-06T22:14:10.357Z,16.95
2018-03-06T22:16:37.907Z,17.60
2018-03-06T22:19:05.431Z,17.65
2018-03-06T22:21:33.043Z,17.48
2018-03-06T22:24:00.950Z,18.37
2018-03-06T22:26:28.488Z,18.77
2018-03-06T22:28:56.120Z,18.55
2018-03-06T22:31:23.668Z,17.90
2018-03-06T22:33:51.196Z,18.75
2018-03-06T22:36:18.808Z,25.08
2018-03-06T22:38:46.332Z,20.37
2018-03-06T22:41:14.635Z,19.17
2018-03-06T22:43:42.247Z,22.35
2018-03-06T22:46:09.769Z,20.45
2018-03-06T22:48:37.332Z,20.17
2018-03-06T22:51:04.888Z,20.20
2018-03-06T22:53:32.405Z,20.25
2018-03-06T22:56:00.760Z,19.77
2018-03-06T22:58:28.262Z,20.90
2018-03-06T23:00:55.820Z,20.00
2018-03-06T23:03:23.393Z,19.83
2018-03-06T23:05:50.955Z,22.35
2018-03-06T23:08:18.479Z,20.92
2018-03-06T23:10:46.787Z,20.20
2018-03-06T23:13:14.314Z,21.37
2018-03-06T23:15:42.650Z,21.48
2018-03-06T23:18:10.180Z,21.98
2018-03-06T23:20:37.837Z,20.80
2018-03-06T23:23:06.529Z,21.70
2018-03-06T23:25:34.086Z,22.17
2018-03-06T23:28:01.638Z,21.60
2018-03-06T23:30:29.195Z,23.95
2018-03-06T23:32:56.734Z,22.75
2018-03-06T23:35:25.845Z,22.95
2018-03-06T23:37:53.376Z,23.02
2018-03-06T23:40:20.972Z,23.08
2018-03-06T23:42:48.501Z,21.90
2018-03-06T23:45:16.816Z,21.30
2018-03-06T23:47:44.392Z,22.87
2018-03-06T23:50:12.027Z,22.95
2018-03-06T23:52:39.697Z,21.98
2018-03-06T23:55:07.764Z,21.55
2018-03-06T23:57:35.259Z,24.00
